• Join FlightAware (Why Join?)
  • Login
  • US Flag 
01:03AM EDT


 

Airport Tracker/Info


-or-


 

Live Flight TrackerFlight Track Log ✈ AWI3551 ✈ 04-May-2013 ✈ KALB - KDCA

Flight Track Log - Related Links

Times and Time Zones

All times are in EDT time to prevent confusion due to time zone crossing. See the AWI3551 flight status page for this flight to view local times or setup timezone preferences in your user account.

Time Position Orientation Groundspeed Altitude Reporting Facility
EDT Latitude Longitude Course Direction KTS MPH feet Rate Location/Type
09:53AM 42.7631 -73.8061 180° South 168 193 1,600  Level Boston Center
09:53AM 42.7861 -73.8094 354° North 163 188 3,100 2,520 Climbing Boston Center
09:54AM 42.8089 -73.8269 331° Northwest 215 247 4,000 1,560 Climbing Boston Center
09:55AM 42.5153 -74.0095 171° South  Level Estimated
09:55AM 42.8622 -73.8961 316° Northwest 279 321 5,400  Level Boston Center
09:56AM 42.4373 -74.0783 180° South  Level Estimated
09:56AM 42.9133 -73.9653 315° West 277 319 8,700  Level Boston Center
09:57AM 42.3593 -74.1470 170° South  Level Estimated
09:57AM 42.9683 -74.0517 311° West 287 330 11,700  Level Boston Center
09:58AM 42.2812 -74.2155 180° South  Level Estimated
09:58AM 43.0083 -74.1692 295° West 322 371 14,000  Level Boston Center
09:59AM 42.9442 -74.2808 232° Southwest 302 348 16,200 2,040 Climbing Boston Center
10:00AM 42.8547 -74.2642 172° South 313 360 18,100 1,680 Climbing Boston Center
10:01AM 42.7597 -74.2075 156° South 330 380 19,600 1,500 Climbing Boston Center
10:02AM 42.6544 -74.1453 157° South 373 429 21,100 1,620 Climbing Boston Center
10:03AM 42.5408 -74.0717 154° Southeast 411 473 22,900 960 Climbing Boston Center
10:04AM 42.4231 -74.0011 156° South 430 495 23,100 1,200 Climbing Boston Center
10:05AM 42.3133 -73.9336 156° South 446 513 25,400 1,740 Climbing Boston Center
10:06AM 42.1997 -73.8636 155° Southeast 446 513 26,600 1,200 Climbing Boston Center
10:07AM 42.0839 -73.7939 156° South 451 519 27,800 660 Climbing Boston Center
10:08AM 41.9658 -73.7356 160° South 457 526 28,000 60 Climbing Boston Center
10:09AM 41.7675 -73.8275 199° South 465 535 28,000  Level New York Center
10:10AM 41.6428 -73.9022 204° Southwest 478 550 28,000  Level New York Center
10:11AM 41.5181 -73.9739 203° Southwest 484 557 28,000  Level New York Center
10:12AM 41.3889 -74.0508 204° Southwest 496 571 28,000  Level New York Center
10:13AM 41.2553 -74.1325 205° Southwest 506 582 28,000  Level New York Center
10:14AM 41.1536 -74.1908 203° Southwest 513 590 28,000  Level New York Center
10:15AM 41.0097 -74.2714 203° Southwest 513 590 28,000  Level New York Center
10:16AM 40.8806 -74.3444 203° Southwest 507 583 28,000  Level New York Center
10:17AM 40.7650 -74.4397 212° Southwest 507 583 28,000  Level New York Center
10:18AM 40.6836 -74.5775 232° Southwest 483 556 28,000  Level New York Center
10:19AM 40.5997 -74.7178 232° Southwest 488 562 28,000  Level New York Center
10:20AM 40.5058 -74.8489 227° Southwest 493 567 28,000 -360 Level New York Center
10:21AM 40.4197 -74.9800 229° Southwest 493 567 27,300 -1,680 Descending New York Center
10:22AM 40.3322 -75.0972 226° Southwest 478 550 24,800 -2,520 Descending New York Center
10:23AM 40.2553 -75.2067 227° Southwest 443 510 22,300 -1,380 Descending New York Center
10:24AM 40.1758 -75.3211 228° Southwest 426 490 22,000 -180 Descending New York Center
10:25AM 40.0897 -75.4431 227° Southwest 440 506 22,000  Level New York Center
10:26AM 39.9961 -75.5939 231° Southwest 479 551 22,000  Level New York Center
10:27AM 39.9114 -75.7289 231° Southwest 495 570 22,000 -1,020 Level New York Center
10:28AM 39.8306 -75.8639 232° Southwest 495 570 20,000 -2,100 Descending New York Center
10:29AM 39.7478 -75.9900 230° Southwest 481 554 17,800 -2,040 Descending New York Center
10:30AM 39.6806 -76.0983 231° Southwest 449 517 16,000 -2,220 Descending New York Center
10:31AM 39.6017 -76.2244 231° Southwest 427 491 13,500 -2,220 Descending New York Center
10:32AM 39.5333 -76.3167 226° Southwest 402 463 12,000 -900 Descending Potomac TRACON
10:33AM 39.4667 -76.4000 224° Southwest 392 451 12,000 -240 Level Potomac TRACON
10:34AM 39.3667 -76.4833 213° Southwest 403 464 11,600 -1,020 Descending Potomac TRACON
10:35AM 39.2833 -76.5667 218° Southwest 380 437 10,000 -840 Descending Potomac TRACON
10:36AM 39.2000 -76.6333 212° Southwest 339 390 10,000  Level Potomac TRACON
10:37AM 39.1167 -76.7167 218° Southwest 387 445 10,000 -60 Level Potomac TRACON
10:38AM 39.0333 -76.8167 223° Southwest 383 441 9,900 -540 Descending Potomac TRACON
10:39AM 38.9833 -76.8833 226° Southwest 294 338 9,000 -1,380 Descending Potomac TRACON
10:40AM 38.9167 -76.9333 210° Southwest 274 315 7,300 -1,980 Descending Potomac TRACON
10:41AM 38.8500 -76.9500 191° South 267 307 5,300 -1,740 Descending Potomac TRACON
10:42AM 38.7833 -76.9500 180° South 219 252 3,900 -1,560 Descending Potomac TRACON
10:43AM 38.7333 -76.9500 180° South 190 219 2,400 -1,020 Descending Potomac TRACON
10:44AM 38.7167 -77.0167 252° West 197 227 2,000 -420 Descending Potomac TRACON